METAR Data
IDs: Format: Raw Decoded Include TAF

Data at: 0015 UTC 25 Apr 2019

PAWN 242256Z AUTO 34005KT 10SM OVC029 M02/M06 A3021 RMK AO2 UPE2158 SLP244 P0000 T10221056 FZRANO
PAWN 242229Z AUTO 33007KT 10SM OVC029 M03/M06 A3020 RMK AO2 UPE2158 P0000 FZRANO
PAWN 242156Z AUTO 33007KT 10SM UP OVC031 M03/M06 A3020 RMK AO2 UPB42SNE42 SLP241 P0000 T10331061 FZRANO
PAWN 242134Z AUTO 03004KT 9SM -SN OVC031 M03/M07 A3020 RMK AO2 P0000 FZRANO
PAWN 241956Z AUTO 02007KT 3SM -SN OVC027 M05/M08 A3018 RMK AO2 SLP235 P0000 T10501083 FZRANO
PAWN 241924Z AUTO 02005KT 2SM -SN OVC029 M06/M08 A3017 RMK AO2 VIS 1 1/4V5 P0000 FZRANO
PAWN 241903Z AUTO 35006KT 2 1/2SM -SN OVC031 M06/M09 A3016 RMK AO2 VIS 1 1/2V5 P0000 FZRANO
PAWN 241856Z AUTO 35008KT 1 3/4SM -SN OVC031 M06/M09 A3016 RMK AO2 VIS 1 1/4V3 SLP229 P0000 T10611094 FZRANO
PAWN 241846Z AUTO 01006KT 1 3/4SM -SN FEW023 OVC031 M06/M09 A3016 RMK AO2 VIS 3/4V5 P0000 FZRANO
PAWN 241823Z AUTO 03007KT 2 1/2SM -SN OVC029 M06/M10 A3016 RMK AO2 VIS 1 1/4V4 P0000 FZRANO
PAWN 241815Z AUTO 02007KT 1 3/4SM -SN OVC029 M06/M10 A3015 RMK AO2 VIS 1 1/4V4 P0000 FZRANO
PAWN 241756Z AUTO 02008KT 1 3/4SM -SN OVC033 M06/M11 A3015 RMK AO2 VIS 1V3 SNB13 SLP225 P0000 60000 T10611106 11061 21072 51018 FZRANO
PAWN 241746Z AUTO 02007KT 1 3/4SM -SN BKN035 OVC042 M06/M11 A3015 RMK AO2 VIS 1 1/4V4 SNB13 P0000 FZRANO
PAWN 241656Z AUTO 02008KT 10SM BKN055 OVC070 M07/M12 A3014 RMK AO2 SLP221 T10671117 FZRANO
PAWN 241556Z AUTO 03008KT 10SM OVC070 M07/M12 A3012 RMK AO2 SLP214 T10721122 FZRANO
PAWN 241356Z AUTO 01006KT 10SM OVC060 M07/M12 A3008 RMK AO2 SLP203 T10721117 FZRANO
PAWN 241156Z AUTO 01007KT 10SM OVC060 M07/M12 A3005 RMK AO2 SLP192 T10671117 11006 21072 51021 FZRANO
PAWN 240956Z AUTO 01010KT 10SM CLR M07/M11 A3001 RMK AO2 SLP177 T10671111 FZRANO
PAWN 240856Z AUTO 36008KT 10SM CLR M06/M11 A2999 RMK AO2 SLP170 T10561106 52023 FZRANO
PAWN 240656Z AUTO 01007KT 10SM CLR M02/M08 A2995 RMK AO2 SLP156 T10221083 FZRANO
PAWN 240556Z AUTO 02007KT 10SM FEW065 M01/M08 A2992 RMK AO2 SLP148 T10061078 10028 21006 53014 FZRANO
PAWN 240456Z AUTO 02010KT 10SM OVC060 00/M08 A2991 RMK AO2 SLP141 T00001083 FZRANO
PAWN 240356Z AUTO 03010KT 10SM OVC060 02/M08 A2989 RMK AO2 SLP136 T00171078 FZRANO
PAWN 240156Z AUTO 02009KT 10SM CLR 02/M08 A2987 RMK AO2 SLP128 T00221078 FZRANO
PAWN 240056Z AUTO 03007KT 10SM CLR 03/M07 A2985 RMK AO2 SLP123 T00281067
PAWN 232156Z AUTO 04007KT 10SM CLR 02/M08 A2982 RMK AO2 SLP111 T00221078 FZRANO
PAWN 232056Z AUTO 05009KT 10SM CLR 01/M07 A2980 RMK AO2 SLP105 T00111072 51013 FZRANO
PAWN 231956Z AUTO 36006KT 10SM CLR M01/M08 A2979 RMK AO2 SLP103 T10111078 FZRANO
PAWN 231856Z AUTO 03007KT 10SM CLR M03/M09 A2977 RMK AO2 SLP096 T10281089 FZRANO
PAWN 231756Z AUTO 02009KT 10SM CLR M04/M10 A2976 RMK AO2 SLP093 T10441100 11044 21078 51015 FZRANO
PAWN 231556Z AUTO 36006KT 10SM CLR M07/M11 A2973 RMK AO2 SLP083 T10721111 FZRANO
PAWN 231356Z AUTO 02008KT 10SM CLR M07/M11 A2970 RMK AO2 SLP071 T10671111 FZRANO
PAWN 231256Z AUTO 01005KT 10SM CLR M07/M11 A2968 RMK AO2 SLP065 T10671111 FZRANO